Tuthill, South Dakota
Current Conditions -  °F | °C
As of 12:52 PM on Monday 26 Jan 2015 (Local Time) from KVTN Reporting Station
Clear Clear  
Wind Chill: 62°   Ceiling: Unl
Heat Index: 62°   Visibility: 10mi
Dew Point: 32°   Wind: 17mph
Humidity: 32%   Direction: 330°NNW
Pressure: 30.01"   Gusts: 24mph
Location:  43.16°N, 101.5°W
Report Text: KVTN 261952Z AUTO 33015G21KT 10SM CLR 17/00 A3001 RMK AO2 SLP172 T01670000
Loading
Personal Weather Stations






























Interactive Weather Map New forecast layout! Learn more

10-Day Weather Forecast

Advertisements
Track Severe Weather on mobile